Time;durP1;ratioP1;P1;durP2;ratioP2;P2;SDS_P1;SDS_P2;PMS_P1;PMS_P2;Temp;Humidity;BMP_temperature;BMP_pressure;BME280_temperature;BME280_humidity;BME280_pressure;Samples;Min_cycle;Max_cycle;Signal;HPM_P1;HPM_P2
2021/08/07 00:00:37;;;;;;;7.35;4.95;;;9.90;99.90;;;;;;4963020;28;20571;-82
2021/08/07 00:03:03;;;;;;;6.35;4.75;;;9.90;99.90;;;;;;4971594;28;20333;-81
2021/08/07 00:05:29;;;;;;;6.28;4.80;;;9.90;99.90;;;;;;4967869;28;20590;-83
2021/08/07 00:07:54;;;;;;;5.97;4.93;;;9.80;99.90;;;;;;4955332;28;20485;-81
2021/08/07 00:10:20;;;;;;;7.38;5.15;;;9.80;99.90;;;;;;4966120;28;20035;-82
2021/08/07 00:12:46;;;;;;;10.90;6.07;;;9.80;99.90;;;;;;4967187;28;20035;-83
2021/08/07 00:15:11;;;;;;;10.02;6.10;;;9.80;99.90;;;;;;4956940;28;20134;-83
2021/08/07 00:17:37;;;;;;;8.68;6.18;;;9.80;99.90;;;;;;4954383;28;20057;-83
2021/08/07 00:20:05;;;;;;;8.38;5.70;;;9.80;99.90;;;;;;4962424;28;20019;-83
2021/08/07 00:22:31;;;;;;;9.48;6.15;;;9.80;99.90;;;;;;4982741;28;20426;-82
2021/08/07 00:24:57;;;;;;;13.20;6.22;;;9.70;99.90;;;;;;4964441;28;20100;-82
2021/08/07 00:27:22;;;;;;;14.77;9.50;;;9.80;99.90;;;;;;4969213;28;20110;-83
2021/08/07 00:29:48;;;;;;;15.27;8.50;;;9.80;99.90;;;;;;4970667;28;20560;-83
2021/08/07 00:32:13;;;;;;;12.98;7.88;;;9.80;99.90;;;;;;4981122;28;20030;-83
2021/08/07 00:34:39;;;;;;;9.60;6.22;;;9.70;99.90;;;;;;4978194;28;20050;-84
2021/08/07 00:37:06;;;;;;;10.32;6.25;;;9.70;99.90;;;;;;4965720;28;20106;-84
2021/08/07 00:39:31;;;;;;;8.10;6.18;;;9.70;99.90;;;;;;4964991;28;20494;-84
2021/08/07 00:41:58;;;;;;;9.52;6.97;;;9.70;99.90;;;;;;4970812;28;20102;-85
2021/08/07 00:44:23;;;;;;;10.90;7.45;;;9.70;99.90;;;;;;4969774;28;20122;-85
2021/08/07 00:46:49;;;;;;;12.13;7.07;;;9.70;99.90;;;;;;4969968;28;20057;-85
2021/08/07 00:49:15;;;;;;;9.82;7.05;;;9.70;99.90;;;;;;4970623;28;20046;-85
2021/08/07 00:51:41;;;;;;;10.85;6.55;;;9.70;99.90;;;;;;4970776;28;20027;-85
2021/08/07 00:54:06;;;;;;;10.20;6.90;;;9.60;99.90;;;;;;4968479;28;20034;-85
2021/08/07 00:56:32;;;;;;;9.60;6.72;;;9.60;99.90;;;;;;4970285;28;20110;-85
2021/08/07 00:58:58;;;;;;;12.25;6.00;;;9.60;99.90;;;;;;4969559;28;20038;-84
2021/08/07 01:01:28;;;;;;;8.65;6.57;;;9.60;99.90;;;;;;4968785;28;20489;-85
2021/08/07 01:03:56;;;;;;;10.57;6.35;;;9.60;99.90;;;;;;4969063;28;20042;-85
2021/08/07 01:06:33;;;;;;;8.77;6.40;;;9.60;99.90;;;;;;4970148;28;20361;-84
2021/08/07 01:09:17;;;;;;;8.30;6.45;;;9.50;99.90;;;;;;4956897;28;20030;-85
2021/08/07 01:11:48;;;;;;;8.23;5.90;;;9.50;99.90;;;;;;4969262;28;20474;-84
2021/08/07 01:14:18;;;;;;;7.38;5.93;;;9.60;99.90;;;;;;4959730;28;20027;-84
2021/08/07 01:16:46;;;;;;;10.15;5.93;;;9.50;99.90;;;;;;4968163;28;20030;-83
2021/08/07 01:19:18;;;;;;;10.55;7.05;;;9.50;99.90;;;;;;4969154;28;20023;-84
2021/08/07 01:21:56;;;;;;;9.82;5.90;;;9.40;99.90;;;;;;4971292;28;20027;-84
2021/08/07 01:24:47;;;;;;;6.80;5.82;;;9.40;99.90;;;;;;4972567;28;20065;-84
2021/08/07 01:27:17;;;;;;;7.72;6.22;;;9.40;99.90;;;;;;4978982;28;20038;-83
2021/08/07 01:29:43;;;;;;;9.98;6.05;;;9.40;99.90;;;;;;4973547;28;20397;-84
2021/08/07 01:32:10;;;;;;;8.57;5.95;;;9.30;99.90;;;;;;4988266;28;20034;-84
2021/08/07 01:34:39;;;;;;;9.48;6.82;;;9.30;99.90;;;;;;4960360;28;20031;-84
2021/08/07 01:37:06;;;;;;;10.82;6.10;;;9.30;99.90;;;;;;4975088;28;20496;-83
2021/08/07 01:39:31;;;;;;;7.78;5.35;;;9.30;99.90;;;;;;5053516;28;20424;-83
2021/08/07 01:41:57;;;;;;;8.07;5.35;;;9.30;99.90;;;;;;4960234;28;20027;-84
2021/08/07 01:44:23;;;;;;;10.13;4.57;;;9.20;99.90;;;;;;5052959;28;20493;-83
2021/08/07 01:46:57;;;;;;;7.75;4.60;;;9.20;99.90;;;;;;4973479;28;20047;-83
2021/08/07 01:49:41;;;;;;;6.30;5.55;;;9.20;99.90;;;;;;4969643;28;20428;-83
2021/08/07 01:52:12;;;;;;;7.15;5.45;;;9.10;99.90;;;;;;4987379;28;20022;-83
2021/08/07 01:54:45;;;;;;;6.57;5.05;;;9.10;99.90;;;;;;4968084;28;20027;-84
2021/08/07 01:57:15;;;;;;;8.57;5.53;;;9.10;99.90;;;;;;4987514;28;20084;-83
2021/08/07 01:59:43;;;;;;;8.02;5.18;;;9.10;99.90;;;;;;5056710;28;20114;-83
2021/08/07 02:02:09;;;;;;;15.18;5.45;;;9.10;99.90;;;;;;5054819;28;20031;-83
2021/08/07 02:04:36;;;;;;;8.32;4.68;;;9.10;99.90;;;;;;4971263;28;20043;-84
2021/08/07 02:07:02;;;;;;;8.57;5.07;;;9.10;99.90;;;;;;4969829;28;20437;-84
2021/08/07 02:09:27;;;;;;;12.73;5.85;;;9.10;99.90;;;;;;4973225;28;20098;-84
2021/08/07 02:11:57;;;;;;;7.88;6.05;;;9.00;99.90;;;;;;5052951;28;20033;-84
2021/08/07 02:14:25;;;;;;;10.48;7.13;;;9.10;99.90;;;;;;4958471;28;20031;-84
2021/08/07 02:16:52;;;;;;;12.68;8.40;;;9.10;99.90;;;;;;4972505;28;20029;-84
2021/08/07 02:19:18;;;;;;;9.18;7.35;;;9.10;99.90;;;;;;4972783;28;20035;-84
2021/08/07 02:21:45;;;;;;;10.52;6.50;;;9.10;99.90;;;;;;4971777;28;20413;-84
2021/08/07 02:24:10;;;;;;;12.70;7.63;;;9.10;99.90;;;;;;4971169;28;20084;-84
2021/08/07 02:26:37;;;;;;;10.60;8.00;;;9.10;99.90;;;;;;4972259;28;20031;-83
2021/08/07 02:29:04;;;;;;;10.40;6.70;;;9.00;99.90;;;;;;4971148;28;20050;-83
2021/08/07 02:31:31;;;;;;;11.98;7.07;;;9.10;99.90;;;;;;4972640;28;20530;-83
2021/08/07 02:33:58;;;;;;;5.75;5.07;;;9.00;99.90;;;;;;4951588;28;20027;-83
2021/08/07 02:36:24;;;;;;;5.75;5.07;;;9.00;99.90;;;;;;4966773;28;20038;-83
2021/08/07 02:38:50;;;;;;;7.28;5.35;;;8.90;99.90;;;;;;4972370;28;20039;-84
2021/08/07 02:41:17;;;;;;;5.35;4.50;;;8.90;99.90;;;;;;4970201;28;20023;-83
2021/08/07 02:43:43;;;;;;;7.05;4.90;;;8.90;99.90;;;;;;4963159;28;20071;-84
2021/08/07 02:46:10;;;;;;;7.35;5.03;;;8.90;99.90;;;;;;4970613;28;20110;-83
2021/08/07 02:48:36;;;;;;;5.68;4.88;;;8.90;99.90;;;;;;4971386;28;20023;-82
2021/08/07 02:51:02;;;;;;;9.00;5.60;;;8.90;99.90;;;;;;4972222;28;20392;-82
2021/08/07 02:53:29;;;;;;;5.72;5.13;;;8.90;99.90;;;;;;4971035;28;20489;-82
2021/08/07 02:55:54;;;;;;;5.75;5.15;;;8.80;99.90;;;;;;4972481;28;20025;-83
2021/08/07 02:58:21;;;;;;;8.00;5.30;;;8.80;99.90;;;;;;4970444;28;20118;-82
2021/08/07 03:00:47;;;;;;;12.98;5.90;;;8.80;99.90;;;;;;4959267;28;20093;-84
2021/08/07 03:03:13;;;;;;;8.88;5.88;;;8.80;99.90;;;;;;4983452;28;20540;-83
2021/08/07 03:05:38;;;;;;;12.45;7.72;;;8.70;99.90;;;;;;4987019;28;20031;-83
2021/08/07 03:08:04;;;;;;;14.02;8.25;;;8.80;99.90;;;;;;4970787;28;20137;-83
2021/08/07 03:10:30;;;;;;;12.38;6.90;;;8.80;99.90;;;;;;4968988;28;20039;-83
2021/08/07 03:12:57;;;;;;;9.50;7.60;;;8.80;99.90;;;;;;5051375;28;20049;-83
2021/08/07 03:15:24;;;;;;;9.95;7.57;;;8.80;99.90;;;;;;4952528;28;20028;-83
2021/08/07 03:17:50;;;;;;;10.10;7.32;;;8.90;99.90;;;;;;4966107;28;20070;-83
2021/08/07 03:20:17;;;;;;;11.00;6.72;;;8.80;99.90;;;;;;4971802;28;20114;-82
2021/08/07 03:22:43;;;;;;;10.10;7.38;;;8.80;99.90;;;;;;4971509;28;20031;-82
2021/08/07 03:25:12;;;;;;;9.73;7.90;;;8.80;99.90;;;;;;4970443;28;20073;-82
2021/08/07 03:27:39;;;;;;;10.98;7.28;;;8.80;99.90;;;;;;4968659;28;20105;-82
2021/08/07 03:30:05;;;;;;;10.93;7.18;;;8.90;99.90;;;;;;4974032;28;20027;-82
2021/08/07 03:32:31;;;;;;;9.38;6.80;;;8.90;99.90;;;;;;4961577;28;20037;-83
2021/08/07 03:34:56;;;;;;;10.75;7.40;;;8.90;99.90;;;;;;4971191;28;20038;-83
2021/08/07 03:37:22;;;;;;;14.10;6.90;;;9.00;99.90;;;;;;4971166;28;20034;-82
2021/08/07 03:39:48;;;;;;;8.82;6.55;;;9.00;99.90;;;;;;5055035;28;20030;-82
2021/08/07 03:42:13;;;;;;;10.50;6.88;;;9.00;99.90;;;;;;4971098;28;20396;-82
2021/08/07 03:44:39;;;;;;;12.27;7.15;;;9.00;99.90;;;;;;4970661;28;20434;-83
2021/08/07 03:47:04;;;;;;;10.15;7.30;;;9.10;99.90;;;;;;4971490;28;20035;-83
2021/08/07 03:49:30;;;;;;;12.52;8.35;;;9.10;99.90;;;;;;4971381;28;20485;-83
2021/08/07 03:51:56;;;;;;;12.43;8.93;;;9.20;99.90;;;;;;4971552;28;20023;-83
2021/08/07 03:54:21;;;;;;;14.02;9.65;;;9.20;99.90;;;;;;4970733;28;20027;-83
2021/08/07 03:56:47;;;;;;;11.93;8.63;;;9.40;99.90;;;;;;4969714;28;20062;-82
2021/08/07 03:59:12;;;;;;;16.40;9.93;;;9.50;99.90;;;;;;4970005;28;20385;-83
2021/08/07 04:01:38;;;;;;;11.88;9.15;;;9.70;99.90;;;;;;4971078;28;20077;-83
2021/08/07 04:04:05;;;;;;;11.57;7.55;;;9.90;99.90;;;;;;4971070;28;20046;-83
2021/08/07 04:06:31;;;;;;;12.75;9.35;;;10.10;99.90;;;;;;4971015;28;20384;-83
2021/08/07 04:08:56;;;;;;;13.40;9.30;;;10.20;99.90;;;;;;5054422;28;20034;-83
2021/08/07 04:11:22;;;;;;;13.80;10.85;;;10.30;99.90;;;;;;4970781;28;20365;-83
2021/08/07 04:13:47;;;;;;;16.55;10.60;;;10.40;99.90;;;;;;4969933;28;20030;-82
2021/08/07 04:16:13;;;;;;;12.30;7.00;;;10.50;99.90;;;;;;4969949;28;20033;-83
2021/08/07 04:18:39;;;;;;;8.10;4.57;;;10.60;99.90;;;;;;5051098;28;20504;-82
2021/08/07 04:21:04;;;;;;;6.65;5.90;;;10.70;99.90;;;;;;4984839;28;20473;-83
2021/08/07 04:23:30;;;;;;;8.45;5.82;;;10.70;99.90;;;;;;4970084;28;20043;-81
2021/08/07 04:25:56;;;;;;;6.82;5.53;;;10.60;99.90;;;;;;4971661;28;20045;-82
2021/08/07 04:28:21;;;;;;;9.10;6.13;;;10.70;99.90;;;;;;4968065;28;20084;-82
2021/08/07 04:30:47;;;;;;;7.03;5.65;;;10.70;99.90;;;;;;4985175;28;20050;-82
2021/08/07 04:33:13;;;;;;;8.13;5.35;;;10.70;99.90;;;;;;4985282;28;20035;-82
2021/08/07 04:35:39;;;;;;;12.45;5.72;;;10.70;99.90;;;;;;4970269;28;20040;-83
2021/08/07 04:38:05;;;;;;;7.93;5.57;;;10.80;99.90;;;;;;4968890;28;20458;-83
2021/08/07 04:40:31;;;;;;;8.88;5.70;;;10.90;99.90;;;;;;4970877;28;20110;-83
2021/08/07 04:42:57;;;;;;;8.13;5.28;;;11.00;99.90;;;;;;5052393;28;20039;-83
2021/08/07 04:45:23;;;;;;;8.25;5.60;;;11.20;99.90;;;;;;4970038;28;20039;-83
2021/08/07 04:48:03;;;;;;;6.80;5.65;;;11.30;99.90;;;;;;4970921;28;20035;-83
2021/08/07 04:50:31;;;;;;;8.85;5.57;;;11.40;99.90;;;;;;4985806;28;20550;-83
2021/08/07 04:52:58;;;;;;;9.50;5.45;;;11.50;99.90;;;;;;4969936;28;20062;-83
2021/08/07 04:55:24;;;;;;;10.40;7.47;;;11.60;99.90;;;;;;4969143;28;20423;-83
2021/08/07 04:57:50;;;;;;;9.30;7.60;;;11.70;99.90;;;;;;4973468;28;20444;-83
2021/08/07 05:00:17;;;;;;;9.18;7.15;;;11.90;99.90;;;;;;4971527;28;20019;-83
2021/08/07 05:02:45;;;;;;;9.23;5.40;;;12.10;99.90;;;;;;4972692;28;20027;-83
2021/08/07 05:05:12;;;;;;;15.40;9.82;;;12.30;99.90;;;;;;5057491;28;20038;-82
2021/08/07 05:07:38;;;;;;;11.20;8.43;;;12.40;99.90;;;;;;4973453;28;20034;-82
2021/08/07 05:10:09;;;;;;;17.10;9.95;;;12.60;99.90;;;;;;4971986;28;20400;-82
2021/08/07 05:12:35;;;;;;;21.05;11.70;;;12.70;99.90;;;;;;4973703;28;20023;-82
2021/08/07 05:15:01;;;;;;;19.63;12.98;;;12.80;99.90;;;;;;4972034;28;20034;-82
2021/08/07 05:17:28;;;;;;;22.48;15.32;;;13.00;99.90;;;;;;4973756;28;20102;-82
2021/08/07 05:19:54;;;;;;;27.45;17.42;;;13.20;99.90;;;;;;4973937;28;20050;-82
2021/08/07 05:22:20;;;;;;;23.65;15.85;;;13.30;99.90;;;;;;4972439;28;20031;-82
2021/08/07 05:24:47;;;;;;;25.13;16.70;;;13.40;99.90;;;;;;4973675;28;20496;-82
2021/08/07 05:27:13;;;;;;;20.20;15.18;;;13.60;99.90;;;;;;4973518;28;20108;-82
2021/08/07 05:29:39;;;;;;;25.63;15.88;;;13.70;99.90;;;;;;4964881;28;20033;-82
2021/08/07 05:32:06;;;;;;;25.00;14.80;;;13.80;99.90;;;;;;4983170;28;20053;-82
2021/08/07 05:34:31;;;;;;;23.70;15.45;;;14.00;99.90;;;;;;4971664;28;20026;-82
2021/08/07 05:36:57;;;;;;;22.52;15.77;;;14.10;99.90;;;;;;4973433;28;20023;-82
2021/08/07 05:39:23;;;;;;;17.02;13.02;;;14.20;99.90;;;;;;4973677;28;20030;-83
2021/08/07 05:41:49;;;;;;;21.98;14.43;;;14.30;99.90;;;;;;4971470;28;20134;-82
2021/08/07 05:44:14;;;;;;;21.67;14.05;;;14.50;99.90;;;;;;4971947;28;20031;-82
2021/08/07 05:46:40;;;;;;;20.98;14.05;;;14.60;99.90;;;;;;4971960;28;20106;-82
2021/08/07 05:49:05;;;;;;;19.13;13.20;;;14.70;99.90;;;;;;4972018;28;20061;-82
2021/08/07 05:51:34;;;;;;;18.55;11.65;;;14.80;99.90;;;;;;4988054;28;20495;-82
2021/08/07 05:54:04;;;;;;;20.88;12.82;;;15.00;99.90;;;;;;4972208;28;20472;-82
2021/08/07 05:56:30;;;;;;;16.38;11.63;;;15.10;99.90;;;;;;4970179;28;20481;-81
2021/08/07 05:58:56;;;;;;;16.85;11.48;;;15.20;99.90;;;;;;4964258;28;20586;-81
2021/08/07 06:01:22;;;;;;;17.58;11.48;;;15.40;99.90;;;;;;4968644;28;20096;-82
2021/08/07 06:03:47;;;;;;;15.05;10.05;;;15.50;99.90;;;;;;4970342;28;20488;-82
2021/08/07 06:06:13;;;;;;;14.32;9.52;;;15.70;99.90;;;;;;4970799;28;20035;-82
2021/08/07 06:08:39;;;;;;;13.38;10.40;;;15.80;99.90;;;;;;4968168;28;20015;-82
2021/08/07 06:11:05;;;;;;;15.32;10.00;;;15.90;99.90;;;;;;4969718;28;20043;-82
2021/08/07 06:13:31;;;;;;;15.57;9.55;;;16.00;99.90;;;;;;4969331;28;20038;-82
2021/08/07 06:15:56;;;;;;;12.23;9.25;;;16.10;99.90;;;;;;4970340;28;20136;-82
2021/08/07 06:18:22;;;;;;;9.70;8.25;;;16.30;99.90;;;;;;4985654;28;20054;-82
2021/08/07 06:20:48;;;;;;;11.90;8.57;;;16.40;99.90;;;;;;4969994;28;20061;-82
2021/08/07 06:23:15;;;;;;;9.50;7.78;;;16.60;99.90;;;;;;4985035;28;20035;-82
2021/08/07 06:25:40;;;;;;;9.70;7.35;;;16.70;99.90;;;;;;4965995;28;20066;-81
2021/08/07 06:28:06;;;;;;;9.55;7.03;;;16.80;99.90;;;;;;4966981;28;20711;-81
2021/08/07 06:30:32;;;;;;;8.85;7.20;;;16.90;99.90;;;;;;4966794;28;20035;-82
2021/08/07 06:32:58;;;;;;;12.02;6.68;;;17.00;99.90;;;;;;4963490;28;20023;-82
2021/08/07 06:35:23;;;;;;;11.52;8.02;;;17.10;99.90;;;;;;4985185;28;20558;-82
2021/08/07 06:37:49;;;;;;;11.20;7.20;;;17.30;99.90;;;;;;4970000;28;20055;-82
2021/08/07 06:40:16;;;;;;;9.93;6.22;;;17.40;99.90;;;;;;4971391;28;20076;-82
2021/08/07 06:42:42;;;;;;;10.35;6.72;;;17.50;99.90;;;;;;4987178;28;20388;-83
2021/08/07 06:45:09;;;;;;;8.80;6.80;;;17.60;99.90;;;;;;4959690;28;20054;-83
2021/08/07 06:47:35;;;;;;;6.72;6.03;;;17.80;99.90;;;;;;4951178;28;20123;-81
2021/08/07 06:50:01;;;;;;;13.02;7.40;;;18.00;99.90;;;;;;5041352;28;20527;-82
2021/08/07 06:52:26;;;;;;;10.07;7.07;;;18.00;99.90;;;;;;5049390;28;20395;-82
2021/08/07 06:54:52;;;;;;;11.50;6.97;;;18.10;99.90;;;;;;4993692;28;20030;-82
2021/08/07 06:57:20;;;;;;;8.80;6.47;;;18.30;99.90;;;;;;4969362;28;20045;-82
2021/08/07 06:59:45;;;;;;;14.43;7.88;;;18.40;99.90;;;;;;4962502;28;20019;-82
2021/08/07 07:02:11;;;;;;;8.35;7.30;;;18.40;99.90;;;;;;4968802;28;20088;-82
2021/08/07 07:04:37;;;;;;;10.45;7.13;;;18.60;99.90;;;;;;5052926;28;20031;-82
2021/08/07 07:07:04;;;;;;;11.88;6.57;;;18.60;99.90;;;;;;4952790;28;20042;-83
2021/08/07 07:09:30;;;;;;;14.23;7.80;;;18.70;99.90;;;;;;4963835;28;20507;-81
2021/08/07 07:11:55;;;;;;;11.30;6.57;;;18.90;99.90;;;;;;4947832;28;20040;-82
2021/08/07 07:14:21;;;;;;;13.73;7.03;;;19.10;99.90;;;;;;4953117;28;20464;-83
2021/08/07 07:16:47;;;;;;;10.85;7.20;;;19.20;99.90;;;;;;4951282;28;20031;-80
2021/08/07 07:19:14;;;;;;;10.52;6.20;;;19.40;99.90;;;;;;4951967;28;20408;-80
2021/08/07 07:21:40;;;;;;;12.25;6.72;;;19.40;99.90;;;;;;4961253;28;20484;-79
2021/08/07 07:24:06;;;;;;;11.50;7.30;;;19.70;99.90;;;;;;4975461;28;20035;-80
2021/08/07 07:26:32;;;;;;;12.63;6.72;;;19.80;99.90;;;;;;4960615;28;20031;-79
2021/08/07 07:28:58;;;;;;;13.23;6.93;;;19.90;99.90;;;;;;4976654;28;20022;-80
2021/08/07 07:31:24;;;;;;;9.82;6.32;;;19.90;99.90;;;;;;4965964;28;20031;-81
2021/08/07 07:33:51;;;;;;;10.73;6.70;;;20.10;99.90;;;;;;4963537;28;20015;-80
2021/08/07 07:36:17;;;;;;;10.05;7.05;;;19.90;99.90;;;;;;4963588;28;20038;-80
2021/08/07 07:38:43;;;;;;;11.77;6.25;;;19.90;99.90;;;;;;4963004;28;20055;-80
2021/08/07 07:41:10;;;;;;;9.57;6.85;;;19.90;99.90;;;;;;4949881;28;20054;-81
2021/08/07 07:43:36;;;;;;;10.10;6.78;;;19.90;99.90;;;;;;5025773;28;20030;-81
2021/08/07 07:46:02;;;;;;;10.95;7.18;;;19.80;99.90;;;;;;4961612;28;20460;-81
2021/08/07 07:48:28;;;;;;;13.20;7.50;;;19.80;99.90;;;;;;4965473;28;20043;-81
2021/08/07 07:50:54;;;;;;;10.07;6.85;;;19.80;99.90;;;;;;4980741;28;20039;-82
2021/08/07 07:53:19;;;;;;;10.63;7.18;;;19.90;99.90;;;;;;4963872;28;20121;-82
2021/08/07 07:55:45;;;;;;;12.73;7.05;;;19.90;99.90;;;;;;4970651;28;20142;-82
2021/08/07 07:58:11;;;;;;;11.80;5.68;;;20.00;99.90;;;;;;4978051;28;20049;-81
2021/08/07 08:00:37;;;;;;;11.48;6.25;;;20.10;99.90;;;;;;4960100;28;20046;-82
2021/08/07 08:03:02;;;;;;;10.93;6.90;;;20.00;99.90;;;;;;4980702;28;20477;-82
2021/08/07 08:05:28;;;;;;;11.63;6.88;;;20.00;99.90;;;;;;4965875;28;20404;-82
2021/08/07 08:07:54;;;;;;;11.90;6.82;;;20.00;99.90;;;;;;4970548;28;20036;-83
2021/08/07 08:10:20;;;;;;;12.10;7.80;;;19.80;99.90;;;;;;4963834;28;20038;-82
2021/08/07 08:12:45;;;;;;;10.63;7.25;;;19.70;99.90;;;;;;4960786;28;20035;-81
2021/08/07 08:15:12;;;;;;;11.35;7.85;;;19.50;99.90;;;;;;4953889;28;20031;-82
2021/08/07 08:17:38;;;;;;;11.68;7.72;;;19.80;99.90;;;;;;4966573;28;20074;-81
2021/08/07 08:20:06;;;;;;;15.50;8.30;;;20.10;99.90;;;;;;4970649;28;20023;-81
2021/08/07 08:22:31;;;;;;;12.13;7.97;;;20.20;99.90;;;;;;4967315;28;20118;-82
2021/08/07 08:24:59;;;;;;;13.82;7.40;;;20.10;99.40;;;;;;4953912;28;20463;-82
2021/08/07 08:27:24;;;;;;;10.70;7.40;;;20.10;99.90;;;;;;4968292;28;20036;-81
2021/08/07 08:29:50;;;;;;;16.85;8.57;;;20.10;99.90;;;;;;4963654;28;20102;-81
2021/08/07 08:32:16;;;;;;;11.85;7.40;;;20.00;99.90;;;;;;4977439;28;20039;-82
2021/08/07 08:34:42;;;;;;;12.20;7.05;;;20.00;99.90;;;;;;4976739;28;20527;-81
2021/08/07 08:37:09;;;;;;;10.60;7.22;;;19.90;99.90;;;;;;4959002;28;20496;-82
2021/08/07 08:39:35;;;;;;;8.93;7.40;;;20.20;99.90;;;;;;4967621;28;20027;-81
2021/08/07 08:42:01;;;;;;;8.95;6.15;;;20.70;99.90;;;;;;4972952;28;20035;-81
2021/08/07 08:44:27;;;;;;;9.25;6.60;;;21.10;96.30;;;;;;4951274;28;20505;-82
2021/08/07 08:46:53;;;;;;;11.15;6.03;;;21.50;92.60;;;;;;4970238;28;20036;-79
2021/08/07 08:49:20;;;;;;;7.40;5.65;;;21.70;86.60;;;;;;4970104;28;20098;-81
2021/08/07 08:51:48;;;;;;;9.63;6.18;;;21.90;85.90;;;;;;4986090;28;20370;-80
2021/08/07 08:54:17;;;;;;;7.43;5.00;;;22.00;85.00;;;;;;4981589;28;20477;-82
2021/08/07 08:56:46;;;;;;;10.40;6.13;;;22.00;83.00;;;;;;4975306;28;20040;-81
2021/08/07 08:59:12;;;;;;;9.30;5.10;;;21.80;81.70;;;;;;4962405;28;20031;-80
2021/08/07 09:01:37;;;;;;;9.65;5.68;;;21.80;82.70;;;;;;5055801;28;20442;-81
2021/08/07 09:04:04;;;;;;;10.77;5.57;;;21.80;84.40;;;;;;4981680;28;20562;-81
2021/08/07 09:06:32;;;;;;;8.80;5.88;;;21.80;82.80;;;;;;4969847;28;20043;-82
2021/08/07 09:09:05;;;;;;;3.65;3.08;;;22.10;89.90;;;;;;4985405;28;20037;-82
2021/08/07 09:11:32;;;;;;;3.30;3.10;;;22.30;81.90;;;;;;4969956;28;20038;-81
2021/08/07 09:14:29;;;;;;;4.03;3.63;;;22.50;77.10;;;;;;4968099;28;20027;-81
2021/08/07 09:16:58;;;;;;;3.45;3.15;;;22.80;78.50;;;;;;4975430;28;20039;-81
2021/08/07 09:19:44;;;;;;;3.08;2.80;;;22.90;74.90;;;;;;4970718;28;20092;-81
2021/08/07 09:22:24;;;;;;;3.47;3.15;;;22.70;73.40;;;;;;4978430;28;20136;-80
2021/08/07 09:24:57;;;;;;;2.97;2.75;;;22.60;74.10;;;;;;4970681;28;20042;-81
2021/08/07 09:27:30;;;;;;;3.22;2.92;;;22.50;76.60;;;;;;5055107;28;20070;-81
2021/08/07 09:29:56;;;;;;;4.25;3.63;;;22.70;78.40;;;;;;4966380;28;20031;-81
2021/08/07 09:32:22;;;;;;;3.13;2.83;;;23.00;80.10;;;;;;4959990;28;20381;-82
2021/08/07 09:35:08;;;;;;;3.75;3.35;;;23.00;76.40;;;;;;4969683;28;20038;-82
2021/08/07 09:37:34;;;;;;;4.32;3.10;;;23.50;76.40;;;;;;4963252;28;20043;-82
2021/08/07 09:40:01;;;;;;;3.33;2.72;;;23.60;75.10;;;;;;5039440;28;20024;-82
2021/08/07 09:42:28;;;;;;;3.80;2.83;;;23.60;69.30;;;;;;4964484;28;20031;-81
2021/08/07 09:45:10;;;;;;;2.83;2.45;;;23.70;70.80;;;;;;4981637;28;20085;-81
2021/08/07 09:48:15;;;;;;;4.13;3.17;;;24.00;73.70;;;;;;4973574;28;20046;-85
2021/08/07 09:50:42;;;;;;;5.53;3.13;;;24.00;71.40;;;;;;4977933;28;20572;-85
2021/08/07 09:53:28;;;;;;;3.20;3.00;;;23.70;69.90;;;;;;4972381;28;20489;-83
2021/08/07 09:56:00;;;;;;;3.17;2.70;;;23.70;72.80;;;;;;4950885;28;20081;-83
2021/08/07 09:58:26;;;;;;;;;;;23.80;71.40;;;;;;4966036;28;20035;-81
2021/08/07 10:00:51;;;;;;;4.65;2.92;;;23.70;67.40;;;;;;4981746;28;19953;-83
2021/08/07 10:03:20;;;;;;;2.72;2.53;;;23.50;70.90;;;;;;4965183;28;20169;-81
2021/08/07 10:05:47;;;;;;;4.72;2.90;;;23.20;70.10;;;;;;4983613;28;20034;-82
2021/08/07 10:08:13;;;;;;;2.92;2.63;;;23.10;71.20;;;;;;4972094;28;20400;-82
2021/08/07 10:10:41;;;;;;;3.03;2.70;;;23.20;71.00;;;;;;4965832;28;20023;-82
2021/08/07 10:13:11;;;;;;;4.25;2.72;;;23.20;70.70;;;;;;4979172;28;20096;-82
2021/08/07 10:15:38;;;;;;;2.63;2.42;;;23.20;74.30;;;;;;4985779;28;20502;-82
2021/08/07 10:18:05;;;;;;;4.20;2.70;;;23.10;72.40;;;;;;4958468;28;20047;-82
2021/08/07 10:20:34;;;;;;;3.80;2.60;;;23.00;71.20;;;;;;4965005;28;20031;-83
2021/08/07 10:23:00;;;;;;;3.17;2.50;;;23.20;71.40;;;;;;4961733;28;20049;-83
2021/08/07 10:25:26;;;;;;;4.57;2.78;;;23.40;68.20;;;;;;4950987;28;20067;-83
2021/08/07 10:27:57;;;;;;;2.88;2.60;;;23.60;66.90;;;;;;4973747;28;20066;-82
2021/08/07 10:30:24;;;;;;;3.13;2.92;;;23.80;63.30;;;;;;4976302;28;21696;-83
2021/08/07 10:32:50;;;;;;;2.00;1.80;;;24.10;66.60;;;;;;4983532;28;20034;-83
2021/08/07 10:35:16;;;;;;;2.50;2.30;;;23.90;61.60;;;;;;4989254;28;20020;-84
2021/08/07 10:37:42;;;;;;;2.47;2.28;;;23.80;62.70;;;;;;4955079;28;20050;-83
2021/08/07 10:40:10;;;;;;;3.72;2.50;;;23.50;62.60;;;;;;4959025;28;20031;-83
2021/08/07 10:42:37;;;;;;;2.83;2.20;;;23.60;63.30;;;;;;4965246;28;20039;-83
2021/08/07 10:45:09;;;;;;;3.25;2.55;;;23.90;62.50;;;;;;4967973;28;20053;-83
2021/08/07 10:47:40;;;;;;;4.72;2.50;;;24.20;64.50;;;;;;4953402;28;20077;-84
2021/08/07 10:50:28;;;;;;;2.88;2.45;;;24.40;65.20;;;;;;4951988;28;20424;-84
2021/08/07 10:53:00;;;;;;;5.03;2.97;;;24.70;62.80;;;;;;4946976;28;20074;-84
2021/08/07 10:55:47;;;;;;;3.00;2.80;;;24.80;61.30;;;;;;4976661;28;20114;-84
2021/08/07 10:58:36;;;;;;;13.85;12.35;;;24.50;60.70;;;;;;4967967;28;20043;-84
2021/08/07 11:01:27;;;;;;;3.55;2.90;;;24.40;60.00;;;;;;4953909;28;20059;-84
2021/08/07 11:04:03;;;;;;;3.15;2.95;;;24.60;61.50;;;;;;4980331;28;20031;-84
2021/08/07 11:06:38;;;;;;;7.45;5.57;;;24.80;62.20;;;;;;4951077;28;20020;-83
2021/08/07 11:09:30;;;;;;;3.25;3.00;;;24.80;59.80;;;;;;4955736;28;20039;-84
2021/08/07 11:12:11;;;;;;;3.38;3.08;;;24.40;57.80;;;;;;4955909;28;20038;-83
2021/08/07 11:14:40;;;;;;;3.53;3.33;;;24.20;60.40;;;;;;4971094;28;20039;-83
2021/08/07 11:17:05;;;;;;;2.90;2.70;;;24.50;62.10;;;;;;4970866;28;20043;-84
2021/08/07 11:19:48;;;;;;;2.80;2.60;;;24.50;59.60;;;;;;4968360;28;20034;-83
2021/08/07 11:22:17;;;;;;;3.03;2.83;;;24.40;58.60;;;;;;4964363;28;20038;-83
2021/08/07 11:24:43;;;;;;;3.55;3.25;;;24.20;58.90;;;;;;4954453;28;20046;-83
2021/08/07 11:27:12;;;;;;;4.40;3.15;;;24.00;59.20;;;;;;4985559;28;20031;-83
2021/08/07 11:30:14;;;;;;;2.75;2.47;;;23.90;61.10;;;;;;4962598;28;20551;-83
2021/08/07 11:32:41;;;;;;;;;;;24.00;61.20;;;;;;4952508;28;20041;-83
2021/08/07 11:35:07;;;;;;;2.58;2.20;;;24.00;61.80;;;;;;4967397;28;19913;-83
2021/08/07 11:37:32;;;;;;;2.17;1.98;;;23.80;59.70;;;;;;4956217;28;20044;-83
2021/08/07 11:40:09;;;;;;;2.78;2.30;;;23.70;60.40;;;;;;4963907;28;20062;-83
2021/08/07 11:42:36;;;;;;;2.35;2.08;;;23.70;62.30;;;;;;4975782;28;20043;-83
2021/08/07 11:45:03;;;;;;;2.55;2.35;;;23.50;63.10;;;;;;4955992;28;20035;-83
2021/08/07 11:47:28;;;;;;;3.47;2.60;;;23.70;64.10;;;;;;4968311;28;20557;-84
2021/08/07 11:49:54;;;;;;;2.92;2.72;;;24.00;61.60;;;;;;4966482;28;20023;-83
2021/08/07 11:52:21;;;;;;;2.15;2.00;;;24.10;62.50;;;;;;4977638;28;20119;-83
2021/08/07 11:54:52;;;;;;;2.25;1.73;;;24.30;60.10;;;;;;4954000;28;20023;-84
2021/08/07 11:57:22;;;;;;;2.92;2.72;;;24.50;58.90;;;;;;4968507;28;20099;-84
2021/08/07 11:59:48;;;;;;;4.70;2.00;;;24.80;58.60;;;;;;4953327;28;20023;-83
2021/08/07 12:02:15;;;;;;;3.50;1.85;;;24.80;55.80;;;;;;4970283;28;20031;-83
2021/08/07 12:04:41;;;;;;;2.85;1.90;;;25.10;56.00;;;;;;4948581;28;20031;-84
2021/08/07 12:07:15;;;;;;;4.43;2.65;;;25.10;55.90;;;;;;4977848;28;20373;-84
2021/08/07 12:10:04;;;;;;;3.47;2.28;;;25.20;55.90;;;;;;4968841;28;20030;-84
2021/08/07 12:12:30;;;;;;;1.85;1.75;;;25.30;54.80;;;;;;4964719;28;20150;-84
2021/08/07 12:14:55;;;;;;;2.30;2.15;;;25.50;57.00;;;;;;4966414;28;20498;-83
2021/08/07 12:17:21;;;;;;;5.25;2.30;;;25.70;55.30;;;;;;4977052;28;20068;-84
2021/08/07 12:19:47;;;;;;;3.05;2.60;;;25.70;54.10;;;;;;4967615;28;20030;-82
2021/08/07 12:22:13;;;;;;;2.28;2.08;;;25.30;53.80;;;;;;4965065;28;20038;-83
2021/08/07 12:24:39;;;;;;;2.97;1.90;;;25.00;54.70;;;;;;4965616;28;20045;-88
2021/08/07 12:27:05;;;;;;;1.58;1.48;;;24.70;54.50;;;;;;4965818;28;20023;-83
2021/08/07 12:29:32;;;;;;;2.30;1.75;;;24.50;55.60;;;;;;4966779;28;20118;-83
2021/08/07 12:32:01;;;;;;;2.30;2.20;;;24.60;55.90;;;;;;4988712;28;20376;-89
2021/08/07 12:34:35;;;;;;;2.38;1.75;;;24.80;57.10;;;;;;4962406;28;20054;-90
2021/08/07 12:37:04;;;;;;;1.70;1.60;;;24.90;54.70;;;;;;4964255;28;20030;-91
2021/08/07 12:39:40;;;;;;;4.13;1.63;;;25.10;54.30;;;;;;4962029;28;20043;-88
2021/08/07 12:42:07;;;;;;;1.05;1.05;;;25.00;55.90;;;;;;4969788;28;20137;-88
2021/08/07 12:44:33;;;;;;;1.70;1.60;;;25.20;52.40;;;;;;4952490;28;20039;-89
2021/08/07 12:46:59;;;;;;;2.40;2.00;;;25.20;51.90;;;;;;4952357;28;20584;-89
2021/08/07 12:49:37;;;;;;;1.90;1.75;;;25.30;53.40;;;;;;4976226;28;20110;-89